Oconto, WI

7:08 AM CST on February 14, 2016 (GMT -0600)
Oconto Municipal

Weather History for KOCQ - January, 2014

Change the Weather History Date:

Tuesday, January 7, 2014

  Actual Average Record
Temperature  
Mean Temperature -10 °F -  
Max Temperature -1 °F 23 °F 34 °F (2016)
Min Temperature -18 °F 3 °F -18 °F (2014)
Degree Days  
Heating Degree Days 74    
Moisture  
Dew Point -20 °F    
Average Humidity 63    
Maximum Humidity 69    
Minimum Humidity 55    
Precipitation  
Precipitation 0.00 in - - ()
Sea Level Pressure  
Sea Level Pressure 30.10 in    
Wind  
Wind Speed 12 mph (WSW)    
Max Wind Speed 15 mph    
Max Gust Speed 22 mph    
Visibility 10 miles    
Events      
Averages and records for this station are not official NWS values.
T = Trace of Precipitation, MM = Missing Value Source: NWS Daily Summary

Daily Weather History Graph

Daily Weather History Graph

Search for Another Location

Airport or City:

Trip Planner

Search our weather history database for the weather conditions in past years. The results will help you decide how hot, cold, wet, or windy it might be!

Date:

Astronomy

Jan. 07, 2014 Rise Set
Actual Time 7:28 AM CST 4:27 PM CST
Civil Twilight 6:55 AM CST 5:00 PM CST
Nautical Twilight 6:18 AM CST 5:37 PM CST
Astronomical Twilight 5:43 AM CST 6:12 PM CST
Moon 10:58 AM CST (1/7) No Moon Set
Length of Visible Light 10h 04m
Length of Day
8h 58m
Waxing Crescent, 46% of the Moon is Illuminated
Jan 7
Waxing Crescent
Jan 7
First Quarter
Jan 15
Full
Jan 23
Last Quarter
Jan 30
New

Hourly Weather History & Observations

Time (CST) Temp. Windchill Dew Point Humidity Pressure Visibility Wind Dir Wind Speed Gust Speed Precip Events Conditions
12:15 AM -16.8 °F -39.1 °F -26.5 °F 61% 30.04 in 10.0 mi West 12.7 mph 19.6 mph N/A   Clear
12:35 AM -17.0 °F -41.1 °F -26.5 °F 62% 30.03 in 10.0 mi West 15.0 mph 19.6 mph N/A   Clear
12:55 AM -17.1 °F -40.5 °F -26.5 °F 62% 30.02 in 10.0 mi West 13.8 mph 19.6 mph N/A   Clear
1:15 AM -17.3 °F -40.7 °F -26.5 °F 63% 30.02 in 10.0 mi West 13.8 mph - N/A   Clear
1:35 AM -17.5 °F -40.9 °F -26.5 °F 64% 30.02 in 10.0 mi West 13.8 mph 20.7 mph N/A   Clear
1:55 AM -17.3 °F -38.8 °F -26.5 °F 63% 30.03 in 10.0 mi West 11.5 mph - N/A   Clear
2:15 AM -17.7 °F -41.2 °F -26.5 °F 64% 30.04 in 10.0 mi West 13.8 mph - N/A   Clear
2:35 AM -17.5 °F -40.0 °F -26.5 °F 64% 30.04 in 10.0 mi West 12.7 mph 18.4 mph N/A   Clear
2:55 AM -17.5 °F -39.0 °F -26.5 °F 64% 30.04 in 10.0 mi West 11.5 mph 18.4 mph N/A   Clear
3:15 AM -17.7 °F -40.2 °F -26.3 °F 65% 30.04 in 10.0 mi West 12.7 mph - N/A   Clear
3:35 AM -17.7 °F -39.3 °F -26.0 °F 66% 30.04 in 10.0 mi WSW 11.5 mph - N/A   Clear
3:55 AM -18.0 °F -39.7 °F -26.0 °F 67% 30.04 in 10.0 mi West 11.5 mph - N/A   Clear
4:15 AM -17.9 °F -34.5 °F -25.8 °F 67% 30.03 in 10.0 mi WSW 6.9 mph - N/A   Clear
4:35 AM -17.9 °F -38.4 °F -25.8 °F 67% 30.02 in 10.0 mi West 10.4 mph - N/A   Clear
4:55 AM -17.9 °F -40.5 °F -25.8 °F 67% 30.03 in 10.0 mi WSW 12.7 mph 18.4 mph N/A   Clear
5:15 AM -17.7 °F -39.3 °F -25.8 °F 67% 30.03 in 10.0 mi West 11.5 mph 18.4 mph N/A   Clear
5:35 AM -17.9 °F -39.5 °F -25.8 °F 67% 30.03 in 10.0 mi West 11.5 mph - N/A   Clear
5:55 AM -18.0 °F -40.7 °F -25.8 °F 68% 30.03 in 10.0 mi West 12.7 mph 16.1 mph N/A   Clear
6:15 AM -17.9 °F -37.2 °F -25.8 °F 67% 30.04 in 10.0 mi West 9.2 mph 16.1 mph N/A   Clear
6:35 AM -17.9 °F -40.5 °F -25.8 °F 67% 30.04 in 10.0 mi West 12.7 mph 17.3 mph N/A   Clear
6:55 AM -18.0 °F -40.7 °F -25.8 °F 68% 30.04 in 10.0 mi WSW 12.7 mph 16.1 mph N/A   Clear
7:15 AM -18.0 °F -37.5 °F -25.8 °F 68% 30.04 in 10.0 mi West 9.2 mph - N/A   Clear
7:35 AM -18.2 °F -38.9 °F -25.8 °F 68% 30.05 in 10.0 mi WSW 10.4 mph - N/A   Clear
7:55 AM -18.0 °F -38.6 °F -25.8 °F 68% 30.06 in 10.0 mi West 10.4 mph 17.3 mph N/A   Clear
8:15 AM -17.5 °F -39.0 °F -25.6 °F 67% 30.07 in 10.0 mi WSW 11.5 mph 17.3 mph N/A   Clear
8:35 AM -16.8 °F -39.1 °F -25.6 °F 64% 30.08 in 10.0 mi West 12.7 mph 19.6 mph N/A   Clear
8:55 AM -16.4 °F -37.7 °F -25.2 °F 64% 30.09 in 10.0 mi West 11.5 mph 19.6 mph N/A   Clear
9:15 AM -15.7 °F -37.7 °F -24.7 °F 64% 30.09 in 10.0 mi West 12.7 mph 17.3 mph N/A   Clear
9:35 AM -15.2 °F -37.1 °F -23.8 °F 65% 30.10 in 10.0 mi West 12.7 mph 17.3 mph N/A   Clear
9:55 AM -14.8 °F -37.5 °F -23.8 °F 64% 30.11 in 10.0 mi West 13.8 mph 20.7 mph N/A   Clear
10:15 AM -14.1 °F -36.6 °F -23.1 °F 64% 30.11 in 10.0 mi West 13.8 mph - N/A   Clear
10:35 AM -13.0 °F -36.0 °F -22.5 °F 62% 30.11 in 10.0 mi West 15.0 mph 19.6 mph N/A   Clear
10:55 AM -11.7 °F -31.8 °F -21.8 °F 61% 30.10 in 10.0 mi WSW 11.5 mph - N/A   Clear
11:15 AM -10.3 °F -30.0 °F -21.1 °F 59% 30.09 in 10.0 mi West 11.5 mph 18.4 mph N/A   Clear
11:35 AM -9.4 °F -28.9 °F -20.7 °F 58% 30.07 in 10.0 mi West 11.5 mph 17.3 mph N/A   Clear
11:55 AM -8.5 °F -29.5 °F -19.7 °F 58% 30.08 in 10.0 mi West 13.8 mph 19.6 mph N/A   Clear
12:15 PM -7.2 °F -28.6 °F -18.9 °F 57% 30.07 in 10.0 mi West 15.0 mph 19.6 mph N/A   Clear
12:35 PM -6.2 °F -27.3 °F -18.4 °F 55% 30.07 in 10.0 mi West 15.0 mph - N/A   Clear
12:55 PM -5.8 °F -26.0 °F -18.2 °F 55% 30.06 in 10.0 mi West 13.8 mph - N/A   Clear
1:15 PM -4.5 °F -22.8 °F -17.0 °F 55% 30.06 in 10.0 mi WSW 11.5 mph - N/A   Clear
1:35 PM -3.6 °F -24.0 °F -16.2 °F 55% 30.06 in 10.0 mi West 15.0 mph 19.6 mph N/A   Clear
1:55 PM -2.9 °F -22.4 °F -15.5 °F 55% 30.07 in 10.0 mi WSW 13.8 mph 19.6 mph N/A   Clear
2:15 PM -2.7 °F -20.5 °F -14.8 °F 56% 30.06 in 10.0 mi WSW 11.5 mph - N/A   Clear
2:35 PM -1.8 °F -21.0 °F -14.3 °F 56% 30.07 in 10.0 mi West 13.8 mph - N/A   Clear
2:55 PM -1.5 °F -21.3 °F -13.7 °F 56% 30.08 in 10.0 mi West 15.0 mph 19.6 mph N/A   Clear
3:15 PM -1.3 °F -20.3 °F -13.5 °F 56% 30.08 in 10.0 mi West 13.8 mph - N/A   Clear
3:35 PM -1.3 °F -16.8 °F -13.5 °F 56% 30.09 in 10.0 mi WSW 9.2 mph 21.9 mph N/A   Clear
3:55 PM -1.3 °F -16.8 °F -13.2 °F 57% 30.09 in 10.0 mi WSW 9.2 mph - N/A   Clear
4:15 PM -2.0 °F -16.6 °F -13.4 °F 59% 30.10 in 10.0 mi WSW 8.1 mph - N/A   Clear
4:35 PM -2.7 °F -18.6 °F -13.5 °F 60% 30.11 in 10.0 mi WSW 9.2 mph - N/A   Clear
4:55 PM -3.3 °F -21.2 °F -13.9 °F 60% 30.12 in 10.0 mi WSW 11.5 mph - N/A   Clear
5:15 PM -4.0 °F -17.8 °F -14.3 °F 61% 30.13 in 10.0 mi WSW 6.9 mph - N/A   Clear
5:35 PM -4.2 °F -19.3 °F -14.6 °F 61% 30.14 in 10.0 mi WSW 8.1 mph - N/A   Clear
5:55 PM -4.4 °F -18.2 °F -14.4 °F 62% 30.14 in 10.0 mi WSW 6.9 mph - N/A   Clear
6:15 PM -4.9 °F -18.8 °F -14.8 °F 62% 30.15 in 10.0 mi WSW 6.9 mph - N/A   Clear
6:35 PM -5.1 °F -15.8 °F -14.8 °F 63% 30.16 in 10.0 mi WSW 4.6 mph - N/A   Clear
6:55 PM -6.0 °F -16.9 °F -15.2 °F 65% 30.17 in 10.0 mi WSW 4.6 mph - N/A   Clear
7:15 PM -6.2 °F -17.1 °F -15.0 °F 66% 30.17 in 10.0 mi WSW 4.6 mph - N/A   Clear
7:35 PM -6.5 °F -20.8 °F -15.2 °F 66% 30.18 in 10.0 mi West 6.9 mph - N/A   Clear
7:55 PM -6.7 °F -21.0 °F -15.2 °F 67% 30.19 in 10.0 mi WSW 6.9 mph - N/A   Clear
8:15 PM -6.7 °F -19.5 °F -15.2 °F 67% 30.19 in 10.0 mi WSW 5.8 mph - N/A   Clear
8:35 PM -7.1 °F -19.9 °F -15.2 °F 68% 30.19 in 10.0 mi WSW 5.8 mph - N/A   Clear
8:55 PM -8.5 °F -24.5 °F -16.2 °F 69% 30.19 in 10.0 mi West 8.1 mph - N/A   Clear
9:15 PM -7.6 °F -24.6 °F -15.3 °F 69% 30.20 in 10.0 mi West 9.2 mph - N/A   Clear
9:35 PM -7.4 °F -23.2 °F -15.5 °F 68% 30.20 in 10.0 mi West 8.1 mph - N/A   Clear
9:55 PM -6.7 °F -23.5 °F -15.2 °F 67% 30.22 in 10.0 mi West 9.2 mph - N/A   Clear
10:15 PM -6.9 °F -22.5 °F -15.3 °F 67% 30.22 in 10.0 mi West 8.1 mph - N/A   Scattered Clouds
10:35 PM -6.9 °F -22.5 °F -15.2 °F 67% 30.22 in 10.0 mi West 8.1 mph - N/A   Scattered Clouds
10:55 PM -6.0 °F -20.1 °F -14.8 °F 66% 30.23 in 10.0 mi West 6.9 mph - N/A   Clear
11:15 PM -6.0 °F -21.5 °F -14.6 °F 66% 30.23 in 10.0 mi West 8.1 mph - N/A   Clear
11:35 PM -6.3 °F -19.1 °F -14.8 °F 67% 30.23 in 10.0 mi West 5.8 mph - N/A   Clear
11:50 PM -6.7 °F -19.5 °F -14.8 °F 68% 30.23 in 10.0 mi WSW 5.8 mph - N/A   Clear